sensor_id;sensor_type;location;lat;lon;timestamp;P1;durP1;ratioP1;P2;durP2;ratioP2
8986;SDS011;4529;51.360;12.474;2023-04-24T00:00:45;2.23;;;1.90;;
8986;SDS011;4529;51.360;12.474;2023-04-24T00:05:49;1.90;;;1.80;;
8986;SDS011;4529;51.360;12.474;2023-04-24T00:10:52;1.93;;;1.83;;
8986;SDS011;4529;51.360;12.474;2023-04-24T00:15:56;2.10;;;1.90;;
8986;SDS011;4529;51.360;12.474;2023-04-24T00:20:59;1.70;;;1.60;;
8986;SDS011;4529;51.360;12.474;2023-04-24T00:26:03;1.73;;;1.63;;
8986;SDS011;4529;51.360;12.474;2023-04-24T00:31:06;1.60;;;1.50;;
8986;SDS011;4529;51.360;12.474;2023-04-24T00:36:10;1.50;;;1.40;;
8986;SDS011;4529;51.360;12.474;2023-04-24T00:41:13;1.50;;;1.40;;
8986;SDS011;4529;51.360;12.474;2023-04-24T00:46:17;1.50;;;1.40;;
8986;SDS011;4529;51.360;12.474;2023-04-24T00:51:20;1.50;;;1.40;;
8986;SDS011;4529;51.360;12.474;2023-04-24T00:56:24;1.60;;;1.50;;
8986;SDS011;4529;51.360;12.474;2023-04-24T01:01:28;1.60;;;1.50;;
8986;SDS011;4529;51.360;12.474;2023-04-24T01:06:32;1.60;;;1.50;;
8986;SDS011;4529;51.360;12.474;2023-04-24T01:11:36;1.50;;;1.40;;
8986;SDS011;4529;51.360;12.474;2023-04-24T01:16:40;1.50;;;1.40;;
8986;SDS011;4529;51.360;12.474;2023-04-24T01:21:45;1.37;;;1.33;;
8986;SDS011;4529;51.360;12.474;2023-04-24T01:26:50;1.50;;;1.40;;
8986;SDS011;4529;51.360;12.474;2023-04-24T01:31:54;1.20;;;1.20;;
8986;SDS011;4529;51.360;12.474;2023-04-24T01:36:58;1.50;;;1.40;;
8986;SDS011;4529;51.360;12.474;2023-04-24T01:42:02;1.60;;;1.23;;
8986;SDS011;4529;51.360;12.474;2023-04-24T01:47:07;2.13;;;1.20;;
8986;SDS011;4529;51.360;12.474;2023-04-24T01:52:10;1.40;;;1.30;;
8986;SDS011;4529;51.360;12.474;2023-04-24T01:57:14;1.30;;;1.30;;
8986;SDS011;4529;51.360;12.474;2023-04-24T02:02:17;1.33;;;1.27;;
8986;SDS011;4529;51.360;12.474;2023-04-24T02:07:21;1.40;;;1.30;;
8986;SDS011;4529;51.360;12.474;2023-04-24T02:12:24;1.77;;;1.30;;
8986;SDS011;4529;51.360;12.474;2023-04-24T02:17:27;1.30;;;1.20;;
8986;SDS011;4529;51.360;12.474;2023-04-24T02:22:32;1.50;;;1.30;;
8986;SDS011;4529;51.360;12.474;2023-04-24T02:27:36;1.10;;;1.10;;
8986;SDS011;4529;51.360;12.474;2023-04-24T02:32:39;1.10;;;1.10;;
8986;SDS011;4529;51.360;12.474;2023-04-24T02:37:43;1.47;;;1.37;;
8986;SDS011;4529;51.360;12.474;2023-04-24T02:42:47;1.40;;;1.40;;
8986;SDS011;4529;51.360;12.474;2023-04-24T02:47:52;1.63;;;1.30;;
8986;SDS011;4529;51.360;12.474;2023-04-24T02:52:56;1.37;;;1.30;;
8986;SDS011;4529;51.360;12.474;2023-04-24T02:58:00;1.57;;;1.30;;
8986;SDS011;4529;51.360;12.474;2023-04-24T03:03:04;1.30;;;1.20;;
8986;SDS011;4529;51.360;12.474;2023-04-24T03:08:08;1.40;;;1.30;;
8986;SDS011;4529;51.360;12.474;2023-04-24T03:13:12;1.60;;;1.20;;
8986;SDS011;4529;51.360;12.474;2023-04-24T03:18:16;1.90;;;1.20;;
8986;SDS011;4529;51.360;12.474;2023-04-24T03:23:20;1.90;;;1.13;;
8986;SDS011;4529;51.360;12.474;2023-04-24T03:28:25;1.13;;;1.13;;
8986;SDS011;4529;51.360;12.474;2023-04-24T03:33:29;2.13;;;1.20;;
8986;SDS011;4529;51.360;12.474;2023-04-24T03:38:33;1.40;;;1.30;;
8986;SDS011;4529;51.360;12.474;2023-04-24T03:43:37;1.50;;;1.40;;
8986;SDS011;4529;51.360;12.474;2023-04-24T03:48:41;1.57;;;1.30;;
8986;SDS011;4529;51.360;12.474;2023-04-24T03:53:46;1.70;;;1.30;;
8986;SDS011;4529;51.360;12.474;2023-04-24T03:58:49;1.43;;;1.40;;
8986;SDS011;4529;51.360;12.474;2023-04-24T04:03:53;1.17;;;1.17;;
8986;SDS011;4529;51.360;12.474;2023-04-24T04:08:58;1.20;;;1.20;;
8986;SDS011;4529;51.360;12.474;2023-04-24T04:14:02;1.50;;;1.40;;
8986;SDS011;4529;51.360;12.474;2023-04-24T04:19:06;1.33;;;1.30;;
8986;SDS011;4529;51.360;12.474;2023-04-24T04:24:10;1.50;;;1.40;;
8986;SDS011;4529;51.360;12.474;2023-04-24T04:29:14;1.43;;;1.33;;
8986;SDS011;4529;51.360;12.474;2023-04-24T04:34:18;2.00;;;1.50;;
8986;SDS011;4529;51.360;12.474;2023-04-24T04:39:21;1.57;;;1.47;;
8986;SDS011;4529;51.360;12.474;2023-04-24T04:44:25;1.50;;;1.40;;
8986;SDS011;4529;51.360;12.474;2023-04-24T04:49:28;2.13;;;1.53;;
8986;SDS011;4529;51.360;12.474;2023-04-24T04:54:31;1.20;;;1.20;;
8986;SDS011;4529;51.360;12.474;2023-04-24T04:59:35;2.20;;;1.20;;
8986;SDS011;4529;51.360;12.474;2023-04-24T05:04:38;1.50;;;1.40;;
8986;SDS011;4529;51.360;12.474;2023-04-24T05:09:42;1.00;;;1.00;;
8986;SDS011;4529;51.360;12.474;2023-04-24T05:14:45;1.40;;;1.30;;
8986;SDS011;4529;51.360;12.474;2023-04-24T05:19:49;1.50;;;1.40;;
8986;SDS011;4529;51.360;12.474;2023-04-24T05:24:52;1.30;;;1.27;;
8986;SDS011;4529;51.360;12.474;2023-04-24T05:29:56;1.93;;;1.50;;
8986;SDS011;4529;51.360;12.474;2023-04-24T05:35:01;1.63;;;1.50;;
8986;SDS011;4529;51.360;12.474;2023-04-24T05:40:05;1.43;;;1.33;;
8986;SDS011;4529;51.360;12.474;2023-04-24T05:45:09;1.73;;;1.63;;
8986;SDS011;4529;51.360;12.474;2023-04-24T05:50:13;1.50;;;1.47;;
8986;SDS011;4529;51.360;12.474;2023-04-24T05:55:17;1.33;;;1.30;;
8986;SDS011;4529;51.360;12.474;2023-04-24T06:00:21;1.30;;;1.30;;
8986;SDS011;4529;51.360;12.474;2023-04-24T06:05:26;1.20;;;1.20;;
8986;SDS011;4529;51.360;12.474;2023-04-24T06:10:30;1.70;;;1.20;;
8986;SDS011;4529;51.360;12.474;2023-04-24T06:15:34;1.20;;;1.20;;
8986;SDS011;4529;51.360;12.474;2023-04-24T06:20:38;2.63;;;1.50;;
8986;SDS011;4529;51.360;12.474;2023-04-24T06:25:42;2.00;;;1.30;;
8986;SDS011;4529;51.360;12.474;2023-04-24T06:30:46;1.03;;;1.03;;
8986;SDS011;4529;51.360;12.474;2023-04-24T06:35:50;1.77;;;1.30;;
8986;SDS011;4529;51.360;12.474;2023-04-24T06:40:54;2.83;;;1.20;;
8986;SDS011;4529;51.360;12.474;2023-04-24T06:45:58;1.30;;;1.20;;
8986;SDS011;4529;51.360;12.474;2023-04-24T06:51:01;1.37;;;1.20;;
8986;SDS011;4529;51.360;12.474;2023-04-24T06:56:05;1.20;;;1.10;;
8986;SDS011;4529;51.360;12.474;2023-04-24T07:01:09;1.27;;;1.17;;
8986;SDS011;4529;51.360;12.474;2023-04-24T07:06:12;1.33;;;1.23;;
8986;SDS011;4529;51.360;12.474;2023-04-24T07:11:15;1.87;;;1.20;;
8986;SDS011;4529;51.360;12.474;2023-04-24T07:16:19;2.10;;;1.10;;
8986;SDS011;4529;51.360;12.474;2023-04-24T07:21:22;1.13;;;1.13;;
8986;SDS011;4529;51.360;12.474;2023-04-24T07:26:26;1.23;;;1.20;;
8986;SDS011;4529;51.360;12.474;2023-04-24T07:31:29;1.50;;;1.20;;
8986;SDS011;4529;51.360;12.474;2023-04-24T07:36:32;1.37;;;1.27;;
8986;SDS011;4529;51.360;12.474;2023-04-24T07:41:37;1.37;;;1.27;;
8986;SDS011;4529;51.360;12.474;2023-04-24T07:46:41;4.47;;;1.23;;
8986;SDS011;4529;51.360;12.474;2023-04-24T07:51:45;1.00;;;1.00;;
8986;SDS011;4529;51.360;12.474;2023-04-24T07:56:49;1.10;;;1.10;;
8986;SDS011;4529;51.360;12.474;2023-04-24T08:01:53;1.90;;;1.20;;
8986;SDS011;4529;51.360;12.474;2023-04-24T08:06:57;1.37;;;1.07;;
8986;SDS011;4529;51.360;12.474;2023-04-24T08:12:02;3.43;;;1.10;;
8986;SDS011;4529;51.360;12.474;2023-04-24T08:17:05;2.73;;;1.10;;
8986;SDS011;4529;51.360;12.474;2023-04-24T08:22:08;2.50;;;1.10;;
8986;SDS011;4529;51.360;12.474;2023-04-24T08:27:12;2.00;;;1.00;;
8986;SDS011;4529;51.360;12.474;2023-04-24T08:32:15;1.17;;;1.10;;
8986;SDS011;4529;51.360;12.474;2023-04-24T08:37:19;1.20;;;1.17;;
8986;SDS011;4529;51.360;12.474;2023-04-24T08:42:22;1.40;;;1.30;;
8986;SDS011;4529;51.360;12.474;2023-04-24T08:47:26;1.40;;;1.20;;
8986;SDS011;4529;51.360;12.474;2023-04-24T08:52:29;0.97;;;0.93;;
8986;SDS011;4529;51.360;12.474;2023-04-24T08:57:33;0.90;;;0.90;;
8986;SDS011;4529;51.360;12.474;2023-04-24T09:02:47;1.97;;;1.07;;
8986;SDS011;4529;51.360;12.474;2023-04-24T09:07:49;0.80;;;0.80;;
8986;SDS011;4529;51.360;12.474;2023-04-24T09:12:47;1.47;;;0.83;;
8986;SDS011;4529;51.360;12.474;2023-04-24T09:17:51;1.00;;;0.90;;
8986;SDS011;4529;51.360;12.474;2023-04-24T09:22:54;1.43;;;0.67;;
8986;SDS011;4529;51.360;12.474;2023-04-24T09:28:00;3.77;;;1.13;;
8986;SDS011;4529;51.360;12.474;2023-04-24T09:33:11;0.70;;;0.70;;
8986;SDS011;4529;51.360;12.474;2023-04-24T09:38:17;2.67;;;1.10;;
8986;SDS011;4529;51.360;12.474;2023-04-24T09:43:21;1.00;;;1.00;;
8986;SDS011;4529;51.360;12.474;2023-04-24T09:48:35;1.10;;;0.87;;
8986;SDS011;4529;51.360;12.474;2023-04-24T09:53:37;2.77;;;0.80;;
8986;SDS011;4529;51.360;12.474;2023-04-24T09:58:41;1.40;;;0.90;;
8986;SDS011;4529;51.360;12.474;2023-04-24T10:03:44;1.60;;;0.80;;
8986;SDS011;4529;51.360;12.474;2023-04-24T10:08:48;1.00;;;0.80;;
8986;SDS011;4529;51.360;12.474;2023-04-24T10:13:52;1.57;;;0.93;;
8986;SDS011;4529;51.360;12.474;2023-04-24T10:18:58;1.13;;;0.90;;
8986;SDS011;4529;51.360;12.474;2023-04-24T10:24:00;1.57;;;0.90;;
8986;SDS011;4529;51.360;12.474;2023-04-24T10:29:05;1.10;;;1.10;;
8986;SDS011;4529;51.360;12.474;2023-04-24T10:34:09;1.00;;;1.00;;
8986;SDS011;4529;51.360;12.474;2023-04-24T10:39:13;1.00;;;1.00;;
8986;SDS011;4529;51.360;12.474;2023-04-24T10:44:17;0.90;;;0.90;;
8986;SDS011;4529;51.360;12.474;2023-04-24T10:49:31;1.23;;;1.03;;
8986;SDS011;4529;51.360;12.474;2023-04-24T10:54:34;2.20;;;1.00;;
8986;SDS011;4529;51.360;12.474;2023-04-24T10:59:43;0.90;;;0.90;;
8986;SDS011;4529;51.360;12.474;2023-04-24T11:04:46;2.00;;;0.90;;
8986;SDS011;4529;51.360;12.474;2023-04-24T11:09:52;1.40;;;1.00;;
8986;SDS011;4529;51.360;12.474;2023-04-24T11:20:03;0.90;;;0.90;;
8986;SDS011;4529;51.360;12.474;2023-04-24T11:25:08;0.90;;;0.90;;
8986;SDS011;4529;51.360;12.474;2023-04-24T11:30:17;1.03;;;1.00;;
8986;SDS011;4529;51.360;12.474;2023-04-24T11:35:21;1.43;;;1.33;;
8986;SDS011;4529;51.360;12.474;2023-04-24T11:40:25;0.90;;;0.90;;
8986;SDS011;4529;51.360;12.474;2023-04-24T11:45:29;4.17;;;1.30;;
8986;SDS011;4529;51.360;12.474;2023-04-24T11:50:33;1.77;;;1.10;;
8986;SDS011;4529;51.360;12.474;2023-04-24T11:55:37;1.60;;;1.10;;
8986;SDS011;4529;51.360;12.474;2023-04-24T12:00:41;1.57;;;1.10;;
8986;SDS011;4529;51.360;12.474;2023-04-24T12:05:45;1.03;;;1.03;;
8986;SDS011;4529;51.360;12.474;2023-04-24T12:10:50;1.40;;;1.10;;
8986;SDS011;4529;51.360;12.474;2023-04-24T12:15:54;1.40;;;1.30;;
8986;SDS011;4529;51.360;12.474;2023-04-24T12:26:22;1.30;;;1.20;;
8986;SDS011;4529;51.360;12.474;2023-04-24T12:31:26;1.13;;;1.10;;
8986;SDS011;4529;51.360;12.474;2023-04-24T12:36:31;1.33;;;1.30;;
8986;SDS011;4529;51.360;12.474;2023-04-24T12:41:35;2.07;;;1.40;;
8986;SDS011;4529;51.360;12.474;2023-04-24T12:46:39;3.20;;;1.10;;
8986;SDS011;4529;51.360;12.474;2023-04-24T12:51:43;1.30;;;1.20;;
8986;SDS011;4529;51.360;12.474;2023-04-24T12:56:47;1.23;;;1.23;;
8986;SDS011;4529;51.360;12.474;2023-04-24T13:01:51;1.10;;;1.10;;
8986;SDS011;4529;51.360;12.474;2023-04-24T13:06:55;1.77;;;1.27;;
8986;SDS011;4529;51.360;12.474;2023-04-24T13:11:59;1.50;;;1.40;;
8986;SDS011;4529;51.360;12.474;2023-04-24T13:17:04;1.50;;;1.40;;
8986;SDS011;4529;51.360;12.474;2023-04-24T13:22:09;2.33;;;1.30;;
8986;SDS011;4529;51.360;12.474;2023-04-24T13:27:15;2.27;;;1.50;;
8986;SDS011;4529;51.360;12.474;2023-04-24T13:32:19;2.20;;;1.27;;
8986;SDS011;4529;51.360;12.474;2023-04-24T13:37:23;1.33;;;1.20;;
8986;SDS011;4529;51.360;12.474;2023-04-24T13:42:27;1.20;;;1.20;;
8986;SDS011;4529;51.360;12.474;2023-04-24T13:47:31;1.63;;;1.40;;
8986;SDS011;4529;51.360;12.474;2023-04-24T13:52:35;1.77;;;1.40;;
8986;SDS011;4529;51.360;12.474;2023-04-24T13:57:39;1.20;;;1.20;;
8986;SDS011;4529;51.360;12.474;2023-04-24T14:02:44;1.47;;;1.37;;
8986;SDS011;4529;51.360;12.474;2023-04-24T14:07:48;1.50;;;1.40;;
8986;SDS011;4529;51.360;12.474;2023-04-24T14:12:52;1.70;;;1.10;;
8986;SDS011;4529;51.360;12.474;2023-04-24T14:17:56;1.00;;;1.00;;
8986;SDS011;4529;51.360;12.474;2023-04-24T14:23:00;0.83;;;0.83;;
8986;SDS011;4529;51.360;12.474;2023-04-24T14:28:05;0.97;;;0.97;;
8986;SDS011;4529;51.360;12.474;2023-04-24T14:33:08;1.00;;;1.00;;
8986;SDS011;4529;51.360;12.474;2023-04-24T14:38:13;0.90;;;0.90;;
8986;SDS011;4529;51.360;12.474;2023-04-24T14:43:17;2.00;;;0.97;;
8986;SDS011;4529;51.360;12.474;2023-04-24T14:48:21;2.30;;;1.00;;
8986;SDS011;4529;51.360;12.474;2023-04-24T14:53:25;1.50;;;0.90;;
8986;SDS011;4529;51.360;12.474;2023-04-24T14:58:29;0.70;;;0.70;;
8986;SDS011;4529;51.360;12.474;2023-04-24T15:03:33;0.60;;;0.60;;
8986;SDS011;4529;51.360;12.474;2023-04-24T15:08:37;1.43;;;0.70;;
8986;SDS011;4529;51.360;12.474;2023-04-24T15:13:41;2.10;;;0.70;;
8986;SDS011;4529;51.360;12.474;2023-04-24T15:18:44;0.60;;;0.60;;
8986;SDS011;4529;51.360;12.474;2023-04-24T15:23:48;0.90;;;0.53;;
8986;SDS011;4529;51.360;12.474;2023-04-24T15:28:51;0.70;;;0.70;;
8986;SDS011;4529;51.360;12.474;2023-04-24T15:33:55;0.50;;;0.50;;
8986;SDS011;4529;51.360;12.474;2023-04-24T15:38:58;0.60;;;0.60;;
8986;SDS011;4529;51.360;12.474;2023-04-24T15:44:02;0.60;;;0.60;;
8986;SDS011;4529;51.360;12.474;2023-04-24T15:49:06;0.80;;;0.60;;
8986;SDS011;4529;51.360;12.474;2023-04-24T15:54:09;0.50;;;0.50;;
8986;SDS011;4529;51.360;12.474;2023-04-24T15:59:13;2.23;;;0.60;;
8986;SDS011;4529;51.360;12.474;2023-04-24T16:04:16;0.40;;;0.40;;
8986;SDS011;4529;51.360;12.474;2023-04-24T16:09:20;4.27;;;0.50;;
8986;SDS011;4529;51.360;12.474;2023-04-24T16:14:25;0.67;;;0.50;;
8986;SDS011;4529;51.360;12.474;2023-04-24T16:19:29;0.40;;;0.40;;
8986;SDS011;4529;51.360;12.474;2023-04-24T16:24:33;0.33;;;0.33;;
8986;SDS011;4529;51.360;12.474;2023-04-24T16:29:37;0.50;;;0.50;;
8986;SDS011;4529;51.360;12.474;2023-04-24T16:34:41;1.57;;;0.70;;
8986;SDS011;4529;51.360;12.474;2023-04-24T16:39:45;0.43;;;0.43;;
8986;SDS011;4529;51.360;12.474;2023-04-24T16:44:49;0.60;;;0.60;;
8986;SDS011;4529;51.360;12.474;2023-04-24T16:49:53;0.77;;;0.77;;
8986;SDS011;4529;51.360;12.474;2023-04-24T16:54:58;0.50;;;0.50;;
8986;SDS011;4529;51.360;12.474;2023-04-24T17:00:02;1.23;;;0.70;;
8986;SDS011;4529;51.360;12.474;2023-04-24T17:05:05;0.60;;;0.60;;
8986;SDS011;4529;51.360;12.474;2023-04-24T17:10:09;0.50;;;0.50;;
8986;SDS011;4529;51.360;12.474;2023-04-24T17:15:12;0.70;;;0.70;;
8986;SDS011;4529;51.360;12.474;2023-04-24T17:20:16;0.87;;;0.50;;
8986;SDS011;4529;51.360;12.474;2023-04-24T17:25:20;3.00;;;0.57;;
8986;SDS011;4529;51.360;12.474;2023-04-24T17:30:24;0.80;;;0.80;;
8986;SDS011;4529;51.360;12.474;2023-04-24T17:35:28;0.60;;;0.60;;
8986;SDS011;4529;51.360;12.474;2023-04-24T17:40:32;0.60;;;0.60;;
8986;SDS011;4529;51.360;12.474;2023-04-24T17:45:36;1.50;;;0.57;;
8986;SDS011;4529;51.360;12.474;2023-04-24T17:50:40;0.63;;;0.63;;
8986;SDS011;4529;51.360;12.474;2023-04-24T17:55:45;0.60;;;0.60;;
8986;SDS011;4529;51.360;12.474;2023-04-24T18:00:49;0.67;;;0.67;;
8986;SDS011;4529;51.360;12.474;2023-04-24T18:05:53;0.80;;;0.80;;
8986;SDS011;4529;51.360;12.474;2023-04-24T18:10:57;0.70;;;0.70;;
8986;SDS011;4529;51.360;12.474;2023-04-24T18:16:01;1.60;;;1.50;;
8986;SDS011;4529;51.360;12.474;2023-04-24T18:21:05;0.90;;;0.90;;
8986;SDS011;4529;51.360;12.474;2023-04-24T18:26:09;0.80;;;0.80;;
8986;SDS011;4529;51.360;12.474;2023-04-24T18:31:13;0.80;;;0.80;;
8986;SDS011;4529;51.360;12.474;2023-04-24T18:36:18;1.10;;;1.10;;
8986;SDS011;4529;51.360;12.474;2023-04-24T18:41:22;1.40;;;1.30;;
8986;SDS011;4529;51.360;12.474;2023-04-24T18:46:26;1.40;;;1.30;;
8986;SDS011;4529;51.360;12.474;2023-04-24T18:51:30;1.47;;;1.47;;
8986;SDS011;4529;51.360;12.474;2023-04-24T18:56:34;2.00;;;1.30;;
8986;SDS011;4529;51.360;12.474;2023-04-24T19:01:38;1.40;;;1.30;;
8986;SDS011;4529;51.360;12.474;2023-04-24T19:06:42;1.30;;;1.30;;
8986;SDS011;4529;51.360;12.474;2023-04-24T19:11:45;1.50;;;1.40;;
8986;SDS011;4529;51.360;12.474;2023-04-24T19:16:49;1.43;;;1.43;;
8986;SDS011;4529;51.360;12.474;2023-04-24T19:21:52;2.10;;;1.90;;
8986;SDS011;4529;51.360;12.474;2023-04-24T19:26:55;2.50;;;2.23;;
8986;SDS011;4529;51.360;12.474;2023-04-24T19:31:59;4.03;;;3.40;;
8986;SDS011;4529;51.360;12.474;2023-04-24T19:37:03;3.83;;;2.93;;
8986;SDS011;4529;51.360;12.474;2023-04-24T19:42:06;2.47;;;2.27;;
8986;SDS011;4529;51.360;12.474;2023-04-24T19:47:10;4.37;;;2.90;;
8986;SDS011;4529;51.360;12.474;2023-04-24T19:52:14;7.03;;;3.30;;
8986;SDS011;4529;51.360;12.474;2023-04-24T19:57:18;4.00;;;2.53;;
8986;SDS011;4529;51.360;12.474;2023-04-24T20:02:23;4.93;;;2.30;;
8986;SDS011;4529;51.360;12.474;2023-04-24T20:07:27;4.43;;;2.60;;
8986;SDS011;4529;51.360;12.474;2023-04-24T20:12:31;4.20;;;2.53;;
8986;SDS011;4529;51.360;12.474;2023-04-24T20:17:35;3.03;;;2.73;;
8986;SDS011;4529;51.360;12.474;2023-04-24T20:22:39;2.63;;;2.40;;
8986;SDS011;4529;51.360;12.474;2023-04-24T20:27:43;3.20;;;2.60;;
8986;SDS011;4529;51.360;12.474;2023-04-24T20:32:47;2.60;;;2.40;;
8986;SDS011;4529;51.360;12.474;2023-04-24T20:37:52;5.03;;;3.03;;
8986;SDS011;4529;51.360;12.474;2023-04-24T20:42:56;2.83;;;2.57;;
8986;SDS011;4529;51.360;12.474;2023-04-24T20:48:00;5.87;;;3.20;;
8986;SDS011;4529;51.360;12.474;2023-04-24T20:53:04;5.47;;;3.00;;
8986;SDS011;4529;51.360;12.474;2023-04-24T20:58:08;4.03;;;3.00;;
8986;SDS011;4529;51.360;12.474;2023-04-24T21:03:12;4.40;;;2.87;;
8986;SDS011;4529;51.360;12.474;2023-04-24T21:08:16;2.63;;;2.43;;
8986;SDS011;4529;51.360;12.474;2023-04-24T21:13:20;4.10;;;3.20;;
8986;SDS011;4529;51.360;12.474;2023-04-24T21:18:25;4.10;;;2.80;;
8986;SDS011;4529;51.360;12.474;2023-04-24T21:23:29;3.03;;;2.63;;
8986;SDS011;4529;51.360;12.474;2023-04-24T21:28:33;4.10;;;2.97;;
8986;SDS011;4529;51.360;12.474;2023-04-24T21:33:37;4.50;;;3.03;;
8986;SDS011;4529;51.360;12.474;2023-04-24T21:38:40;3.30;;;2.60;;
8986;SDS011;4529;51.360;12.474;2023-04-24T21:43:44;3.30;;;2.43;;
8986;SDS011;4529;51.360;12.474;2023-04-24T21:48:47;2.73;;;2.53;;
8986;SDS011;4529;51.360;12.474;2023-04-24T21:53:51;3.10;;;2.20;;
8986;SDS011;4529;51.360;12.474;2023-04-24T21:58:54;3.90;;;2.40;;
8986;SDS011;4529;51.360;12.474;2023-04-24T22:03:58;2.43;;;2.23;;
8986;SDS011;4529;51.360;12.474;2023-04-24T22:09:01;5.03;;;2.13;;
8986;SDS011;4529;51.360;12.474;2023-04-24T22:14:05;2.87;;;2.60;;
8986;SDS011;4529;51.360;12.474;2023-04-24T22:19:08;2.80;;;2.60;;
8986;SDS011;4529;51.360;12.474;2023-04-24T22:24:12;3.70;;;2.70;;
8986;SDS011;4529;51.360;12.474;2023-04-24T22:29:15;2.80;;;2.43;;
8986;SDS011;4529;51.360;12.474;2023-04-24T22:34:19;3.80;;;2.83;;
8986;SDS011;4529;51.360;12.474;2023-04-24T22:39:23;5.13;;;2.70;;
8986;SDS011;4529;51.360;12.474;2023-04-24T22:44:27;3.10;;;2.57;;
8986;SDS011;4529;51.360;12.474;2023-04-24T22:49:32;2.83;;;2.53;;
8986;SDS011;4529;51.360;12.474;2023-04-24T22:54:36;3.70;;;2.63;;
8986;SDS011;4529;51.360;12.474;2023-04-24T22:59:40;3.87;;;2.70;;
8986;SDS011;4529;51.360;12.474;2023-04-24T23:04:44;3.47;;;2.70;;
8986;SDS011;4529;51.360;12.474;2023-04-24T23:09:48;2.83;;;2.63;;
8986;SDS011;4529;51.360;12.474;2023-04-24T23:14:52;3.13;;;2.83;;
8986;SDS011;4529;51.360;12.474;2023-04-24T23:19:55;3.67;;;3.03;;
8986;SDS011;4529;51.360;12.474;2023-04-24T23:24:59;3.67;;;2.60;;
8986;SDS011;4529;51.360;12.474;2023-04-24T23:30:05;4.20;;;3.17;;
8986;SDS011;4529;51.360;12.474;2023-04-24T23:35:09;4.10;;;3.70;;
8986;SDS011;4529;51.360;12.474;2023-04-24T23:40:12;4.13;;;3.50;;
8986;SDS011;4529;51.360;12.474;2023-04-24T23:45:15;7.47;;;4.03;;
8986;SDS011;4529;51.360;12.474;2023-04-24T23:50:20;3.33;;;3.03;;
8986;SDS011;4529;51.360;12.474;2023-04-24T23:55:24;6.97;;;3.53;;
